CheckWX is a tool to help pilots better visualize weather data.  It is not intended as a substitute for an official pre-flight weather briefing.

00:39:50 UTC

19S METAR
Sublette Municipal Airport
Sublette, Kansas, USA
Current

25 mins ago

K19S 250015Z AUTO 34022G28KT 1 1/4SM -SN BR OVC005 01/ A2991 RMK AO2 P0001 T0005////
Observed
Feb-25 @ 00:15 UTC
Wind
  • 340° at 22 KTS
  • Gusting to 28 KTS
Visibility
1 1/4 SM
Flight Rules
IFR
Conditions
Light Snow, Mist
Cloud Levels
  • Overcast at 500' AGL
Temperature
C / 34°F
Altimeter
29.91" Hg
Pressure
1012.92 hPa
Current Rain
0.01"
Previous

45 mins ago

K19S 242355Z AUTO 34019G26KT 1 1/2SM -SN BR OVC007 01/01 A2990 RMK AO2 P0001 T0007//// 10116 20007 401160007 60001
Observed
Feb-24 @ 23:55 UTC
Wind
  • 340° at 19 KTS
  • Gusting to 26 KTS
Visibility
1 1/2 SM
Flight Rules
IFR
Conditions
Light Snow, Mist
Cloud Levels
  • Overcast at 700' AGL
Temperature
C / 34°F
Dewpoint
C / 34°F
Humidity
100%
Altimeter
29.9" Hg
Pressure
1012.52 hPa
Current Rain
0.01"
Previous

1 hour ago

K19S 242335Z AUTO 35027G38KT 2SM -SN BR SCT007 BKN012 OVC025 01/01 A2988 RMK AO2 T00130009
Observed
Feb-24 @ 23:35 UTC
Wind
  • 350° at 27 KTS
  • Gusting to 38 KTS
Visibility
2 SM
Flight Rules
IFR
Conditions
Light Snow, Mist
Cloud Levels
  • Scattered at 700' AGL
  • Broken at 1,200' AGL
  • Overcast at 2,500' AGL
Temperature
C / 34°F
Dewpoint
C / 34°F
Humidity
100%
Altimeter
29.88" Hg
Pressure
1011.82 hPa